sensor_id;sensor_type;location;lat;lon;timestamp;pressure;altitude;pressure_sealevel;temperature;humidity
59053;BME280;44843;44.728;10.396;2022-08-23T00:02:22;99831.63;;;22.60;nan
59053;BME280;44843;44.728;10.396;2022-08-23T00:04:48;99831.25;;;22.48;nan
59053;BME280;44843;44.728;10.396;2022-08-23T00:07:14;99836.75;;;22.47;nan
59053;BME280;44843;44.728;10.396;2022-08-23T00:09:40;99828.13;;;22.45;nan
59053;BME280;44843;44.728;10.396;2022-08-23T00:12:13;99831.16;;;22.41;nan
59053;BME280;44843;44.728;10.396;2022-08-23T00:14:43;99833.44;;;22.45;nan
59053;BME280;44843;44.728;10.396;2022-08-23T00:17:09;99832.03;;;22.34;nan
59053;BME280;44843;44.728;10.396;2022-08-23T00:19:37;99830.94;;;22.28;nan
59053;BME280;44843;44.728;10.396;2022-08-23T00:22:04;99830.97;;;22.20;nan
59053;BME280;44843;44.728;10.396;2022-08-23T00:24:29;99826.28;;;22.30;nan
59053;BME280;44843;44.728;10.396;2022-08-23T00:27:08;99832.81;;;22.19;nan
59053;BME280;44843;44.728;10.396;2022-08-23T00:29:40;99828.47;;;22.18;nan
59053;BME280;44843;44.728;10.396;2022-08-23T00:32:10;99838.63;;;22.15;nan
59053;BME280;44843;44.728;10.396;2022-08-23T00:34:36;99827.97;;;22.23;nan
59053;BME280;44843;44.728;10.396;2022-08-23T00:37:03;99829.66;;;22.16;nan
59053;BME280;44843;44.728;10.396;2022-08-23T00:39:28;99834.69;;;22.11;nan
59053;BME280;44843;44.728;10.396;2022-08-23T00:42:03;99831.38;;;22.09;nan
59053;BME280;44843;44.728;10.396;2022-08-23T00:44:48;99831.94;;;22.27;nan
59053;BME280;44843;44.728;10.396;2022-08-23T00:47:32;99830.47;;;22.16;nan
59053;BME280;44843;44.728;10.396;2022-08-23T00:50:40;99829.31;;;22.19;nan
59053;BME280;44843;44.728;10.396;2022-08-23T00:53:16;99828.13;;;22.21;nan
59053;BME280;44843;44.728;10.396;2022-08-23T00:55:47;99825.50;;;22.21;nan
59053;BME280;44843;44.728;10.396;2022-08-23T00:58:16;99826.66;;;22.19;nan
59053;BME280;44843;44.728;10.396;2022-08-23T01:00:43;99822.94;;;22.05;nan
59053;BME280;44843;44.728;10.396;2022-08-23T01:03:09;99820.69;;;22.17;nan
59053;BME280;44843;44.728;10.396;2022-08-23T01:05:46;99823.97;;;22.04;nan
59053;BME280;44843;44.728;10.396;2022-08-23T01:08:16;99822.69;;;22.15;nan
59053;BME280;44843;44.728;10.396;2022-08-23T01:10:50;99827.06;;;22.08;nan
59053;BME280;44843;44.728;10.396;2022-08-23T01:13:22;99829.44;;;22.02;nan
59053;BME280;44843;44.728;10.396;2022-08-23T01:15:54;99826.94;;;22.01;nan
59053;BME280;44843;44.728;10.396;2022-08-23T01:18:23;99835.28;;;21.98;nan
59053;BME280;44843;44.728;10.396;2022-08-23T01:23:35;99842.81;;;22.09;nan
59053;BME280;44843;44.728;10.396;2022-08-23T01:26:04;99842.44;;;21.97;nan
59053;BME280;44843;44.728;10.396;2022-08-23T01:28:31;99836.69;;;21.86;nan
59053;BME280;44843;44.728;10.396;2022-08-23T01:30:58;99838.81;;;21.90;nan
59053;BME280;44843;44.728;10.396;2022-08-23T01:33:24;99831.81;;;21.97;nan
59053;BME280;44843;44.728;10.396;2022-08-23T01:35:54;99826.72;;;21.88;nan
59053;BME280;44843;44.728;10.396;2022-08-23T01:38:22;99833.69;;;21.89;nan
59053;BME280;44843;44.728;10.396;2022-08-23T01:40:48;99839.81;;;21.89;nan
59053;BME280;44843;44.728;10.396;2022-08-23T01:43:15;99838.03;;;21.81;nan
59053;BME280;44843;44.728;10.396;2022-08-23T01:45:45;99835.88;;;21.85;nan
59053;BME280;44843;44.728;10.396;2022-08-23T01:48:11;99846.31;;;21.87;nan
59053;BME280;44843;44.728;10.396;2022-08-23T01:50:37;99848.47;;;21.83;nan
59053;BME280;44843;44.728;10.396;2022-08-23T01:53:02;99845.16;;;21.10;nan
59053;BME280;44843;44.728;10.396;2022-08-23T01:55:28;99846.38;;;21.31;nan
59053;BME280;44843;44.728;10.396;2022-08-23T01:57:55;99850.34;;;21.43;nan
59053;BME280;44843;44.728;10.396;2022-08-23T02:00:26;99849.84;;;21.39;nan
59053;BME280;44843;44.728;10.396;2022-08-23T02:02:52;99846.69;;;21.36;nan
59053;BME280;44843;44.728;10.396;2022-08-23T02:05:18;99850.00;;;21.38;nan
59053;BME280;44843;44.728;10.396;2022-08-23T02:07:44;99844.84;;;21.45;nan
59053;BME280;44843;44.728;10.396;2022-08-23T02:10:09;99854.81;;;21.43;nan
59053;BME280;44843;44.728;10.396;2022-08-23T02:12:35;99857.22;;;21.21;nan
59053;BME280;44843;44.728;10.396;2022-08-23T02:15:03;99859.38;;;21.09;nan
59053;BME280;44843;44.728;10.396;2022-08-23T02:17:29;99867.34;;;21.01;nan
59053;BME280;44843;44.728;10.396;2022-08-23T02:19:54;99870.66;;;21.11;nan
59053;BME280;44843;44.728;10.396;2022-08-23T02:22:20;99866.28;;;21.27;nan
59053;BME280;44843;44.728;10.396;2022-08-23T02:24:45;99867.81;;;21.21;nan
59053;BME280;44843;44.728;10.396;2022-08-23T02:27:11;99876.88;;;21.35;nan
59053;BME280;44843;44.728;10.396;2022-08-23T02:29:40;99872.22;;;21.37;nan
59053;BME280;44843;44.728;10.396;2022-08-23T02:32:06;99874.06;;;21.28;nan
59053;BME280;44843;44.728;10.396;2022-08-23T02:34:32;99873.72;;;21.31;nan
59053;BME280;44843;44.728;10.396;2022-08-23T02:36:57;99877.38;;;21.30;nan
59053;BME280;44843;44.728;10.396;2022-08-23T02:39:23;99877.69;;;21.35;nan
59053;BME280;44843;44.728;10.396;2022-08-23T02:41:49;99871.28;;;21.22;nan
59053;BME280;44843;44.728;10.396;2022-08-23T02:44:16;99880.44;;;21.11;nan
59053;BME280;44843;44.728;10.396;2022-08-23T02:46:42;99891.84;;;21.03;nan
59053;BME280;44843;44.728;10.396;2022-08-23T02:49:08;99888.91;;;21.06;nan
59053;BME280;44843;44.728;10.396;2022-08-23T02:51:34;99897.00;;;20.96;nan
59053;BME280;44843;44.728;10.396;2022-08-23T02:53:59;99893.53;;;21.04;nan
59053;BME280;44843;44.728;10.396;2022-08-23T02:56:25;99893.03;;;21.01;nan
59053;BME280;44843;44.728;10.396;2022-08-23T02:58:51;99887.72;;;21.01;nan
59053;BME280;44843;44.728;10.396;2022-08-23T03:01:23;99895.88;;;20.99;nan
59053;BME280;44843;44.728;10.396;2022-08-23T03:03:50;99901.84;;;20.93;nan
59053;BME280;44843;44.728;10.396;2022-08-23T03:06:16;99896.56;;;20.76;nan
59053;BME280;44843;44.728;10.396;2022-08-23T03:08:42;99902.81;;;20.84;nan
59053;BME280;44843;44.728;10.396;2022-08-23T03:11:13;99897.22;;;20.87;nan
59053;BME280;44843;44.728;10.396;2022-08-23T03:13:42;99901.03;;;20.84;nan
59053;BME280;44843;44.728;10.396;2022-08-23T03:16:10;99904.50;;;20.93;nan
59053;BME280;44843;44.728;10.396;2022-08-23T03:18:37;99904.16;;;20.88;nan
59053;BME280;44843;44.728;10.396;2022-08-23T03:21:04;99906.66;;;20.73;nan
59053;BME280;44843;44.728;10.396;2022-08-23T03:23:30;99903.34;;;20.71;nan
59053;BME280;44843;44.728;10.396;2022-08-23T03:25:58;99908.97;;;20.84;nan
59053;BME280;44843;44.728;10.396;2022-08-23T03:28:24;99898.53;;;20.83;nan
59053;BME280;44843;44.728;10.396;2022-08-23T03:30:51;99898.53;;;20.83;nan
59053;BME280;44843;44.728;10.396;2022-08-23T03:33:17;99903.00;;;20.82;nan
59053;BME280;44843;44.728;10.396;2022-08-23T03:35:43;99905.00;;;20.72;nan
59053;BME280;44843;44.728;10.396;2022-08-23T03:38:08;99901.19;;;20.74;nan
59053;BME280;44843;44.728;10.396;2022-08-23T03:40:34;99906.47;;;20.74;nan
59053;BME280;44843;44.728;10.396;2022-08-23T03:42:59;99909.47;;;20.71;nan
59053;BME280;44843;44.728;10.396;2022-08-23T03:45:26;99909.63;;;20.62;nan
59053;BME280;44843;44.728;10.396;2022-08-23T03:47:52;99907.63;;;20.55;nan
59053;BME280;44843;44.728;10.396;2022-08-23T03:50:17;99915.41;;;20.49;nan
59053;BME280;44843;44.728;10.396;2022-08-23T03:52:43;99911.47;;;20.61;nan
59053;BME280;44843;44.728;10.396;2022-08-23T03:55:09;99918.09;;;20.65;nan
59053;BME280;44843;44.728;10.396;2022-08-23T03:57:34;99924.06;;;20.75;nan
59053;BME280;44843;44.728;10.396;2022-08-23T03:59:59;99920.41;;;20.60;nan
59053;BME280;44843;44.728;10.396;2022-08-23T04:02:25;99922.03;;;20.45;nan
59053;BME280;44843;44.728;10.396;2022-08-23T04:04:51;99925.19;;;20.40;nan
59053;BME280;44843;44.728;10.396;2022-08-23T04:07:18;99923.50;;;20.31;nan
59053;BME280;44843;44.728;10.396;2022-08-23T04:09:45;99929.13;;;20.36;nan
59053;BME280;44843;44.728;10.396;2022-08-23T04:12:11;99928.97;;;20.37;nan
59053;BME280;44843;44.728;10.396;2022-08-23T04:14:36;99921.03;;;20.54;nan
59053;BME280;44843;44.728;10.396;2022-08-23T04:17:02;99928.00;;;20.47;nan
59053;BME280;44843;44.728;10.396;2022-08-23T04:19:27;99925.50;;;20.45;nan
59053;BME280;44843;44.728;10.396;2022-08-23T04:21:52;99930.59;;;20.30;nan
59053;BME280;44843;44.728;10.396;2022-08-23T04:24:18;99936.59;;;20.41;nan
59053;BME280;44843;44.728;10.396;2022-08-23T04:26:44;99943.53;;;20.33;nan
59053;BME280;44843;44.728;10.396;2022-08-23T04:29:10;99938.22;;;20.25;nan
59053;BME280;44843;44.728;10.396;2022-08-23T04:31:39;99941.50;;;20.19;nan
59053;BME280;44843;44.728;10.396;2022-08-23T04:34:04;99952.41;;;20.08;nan
59053;BME280;44843;44.728;10.396;2022-08-23T04:36:33;99954.69;;;20.03;nan
59053;BME280;44843;44.728;10.396;2022-08-23T04:39:00;99955.06;;;20.08;nan
59053;BME280;44843;44.728;10.396;2022-08-23T04:41:25;99959.66;;;19.98;nan
59053;BME280;44843;44.728;10.396;2022-08-23T04:44:09;99963.94;;;19.90;nan
59053;BME280;44843;44.728;10.396;2022-08-23T04:46:34;99969.72;;;19.86;nan
59053;BME280;44843;44.728;10.396;2022-08-23T04:49:00;99981.09;;;19.86;nan
59053;BME280;44843;44.728;10.396;2022-08-23T04:51:26;99975.19;;;19.92;nan
59053;BME280;44843;44.728;10.396;2022-08-23T04:53:51;99979.84;;;19.99;nan
59053;BME280;44843;44.728;10.396;2022-08-23T04:56:17;99973.44;;;20.17;nan
59053;BME280;44843;44.728;10.396;2022-08-23T04:58:42;99977.41;;;20.22;nan
59053;BME280;44843;44.728;10.396;2022-08-23T05:01:09;99971.66;;;20.34;nan
59053;BME280;44843;44.728;10.396;2022-08-23T05:03:35;99974.13;;;21.59;nan
59053;BME280;44843;44.728;10.396;2022-08-23T05:06:02;99978.66;;;21.26;nan
59053;BME280;44843;44.728;10.396;2022-08-23T05:08:29;99977.84;;;20.92;nan
59053;BME280;44843;44.728;10.396;2022-08-23T05:10:54;99972.84;;;21.14;nan
59053;BME280;44843;44.728;10.396;2022-08-23T05:13:20;99976.88;;;21.02;nan
59053;BME280;44843;44.728;10.396;2022-08-23T05:15:49;99970.41;;;21.04;nan
59053;BME280;44843;44.728;10.396;2022-08-23T05:18:16;99967.84;;;21.35;nan
59053;BME280;44843;44.728;10.396;2022-08-23T05:20:42;99978.94;;;21.55;nan
59053;BME280;44843;44.728;10.396;2022-08-23T05:23:07;99978.69;;;21.73;nan
59053;BME280;44843;44.728;10.396;2022-08-23T05:25:32;99970.97;;;21.95;nan
59053;BME280;44843;44.728;10.396;2022-08-23T05:28:23;99975.63;;;22.32;nan
59053;BME280;44843;44.728;10.396;2022-08-23T05:31:03;99971.16;;;22.56;nan
59053;BME280;44843;44.728;10.396;2022-08-23T05:33:30;99970.38;;;22.70;nan
59053;BME280;44843;44.728;10.396;2022-08-23T05:35:57;99980.00;;;22.71;nan
59053;BME280;44843;44.728;10.396;2022-08-23T05:38:23;99984.81;;;22.91;nan
59053;BME280;44843;44.728;10.396;2022-08-23T05:40:52;99987.84;;;23.11;nan
59053;BME280;44843;44.728;10.396;2022-08-23T05:43:18;99991.72;;;23.23;nan
59053;BME280;44843;44.728;10.396;2022-08-23T05:45:44;99990.81;;;23.45;nan
59053;BME280;44843;44.728;10.396;2022-08-23T05:48:11;99989.91;;;23.53;nan
59053;BME280;44843;44.728;10.396;2022-08-23T05:50:37;99993.38;;;23.54;nan
59053;BME280;44843;44.728;10.396;2022-08-23T05:53:03;99984.84;;;23.58;nan
59053;BME280;44843;44.728;10.396;2022-08-23T05:55:28;99991.94;;;23.66;nan
59053;BME280;44843;44.728;10.396;2022-08-23T05:57:54;99989.91;;;23.68;nan
59053;BME280;44843;44.728;10.396;2022-08-23T06:00:19;99994.59;;;23.81;nan
59053;BME280;44843;44.728;10.396;2022-08-23T06:02:46;99996.44;;;23.95;nan
59053;BME280;44843;44.728;10.396;2022-08-23T06:05:13;100001.16;;;24.15;nan
59053;BME280;44843;44.728;10.396;2022-08-23T06:07:39;100002.19;;;24.35;nan
59053;BME280;44843;44.728;10.396;2022-08-23T06:10:05;100002.66;;;24.54;nan
59053;BME280;44843;44.728;10.396;2022-08-23T06:12:31;100008.94;;;24.67;nan
59053;BME280;44843;44.728;10.396;2022-08-23T06:14:58;100003.66;;;24.74;nan
59053;BME280;44843;44.728;10.396;2022-08-23T06:17:23;100010.25;;;25.00;nan
59053;BME280;44843;44.728;10.396;2022-08-23T06:19:49;100017.03;;;25.52;nan
59053;BME280;44843;44.728;10.396;2022-08-23T06:22:15;100012.78;;;29.14;nan
59053;BME280;44843;44.728;10.396;2022-08-23T06:24:41;100023.81;;;27.91;nan
59053;BME280;44843;44.728;10.396;2022-08-23T06:27:07;100034.84;;;29.60;nan
59053;BME280;44843;44.728;10.396;2022-08-23T06:29:32;100031.59;;;29.08;nan
59053;BME280;44843;44.728;10.396;2022-08-23T06:31:58;100034.44;;;29.38;nan
59053;BME280;44843;44.728;10.396;2022-08-23T06:34:32;100043.44;;;30.24;nan
59053;BME280;44843;44.728;10.396;2022-08-23T06:39:29;100037.75;;;28.58;nan
59053;BME280;44843;44.728;10.396;2022-08-23T06:41:59;100039.28;;;29.04;nan
59053;BME280;44843;44.728;10.396;2022-08-23T06:44:26;100045.66;;;29.78;nan
59053;BME280;44843;44.728;10.396;2022-08-23T06:46:52;100051.50;;;30.24;nan
59053;BME280;44843;44.728;10.396;2022-08-23T06:49:21;100047.34;;;28.34;nan
59053;BME280;44843;44.728;10.396;2022-08-23T06:51:51;100054.63;;;30.21;nan
59053;BME280;44843;44.728;10.396;2022-08-23T06:54:21;100040.13;;;31.60;nan
59053;BME280;44843;44.728;10.396;2022-08-23T06:56:48;100050.22;;;32.91;nan
59053;BME280;44843;44.728;10.396;2022-08-23T06:59:15;100052.50;;;32.25;nan
59053;BME280;44843;44.728;10.396;2022-08-23T07:01:47;100047.13;;;30.11;nan
59053;BME280;44843;44.728;10.396;2022-08-23T07:04:16;100044.84;;;29.09;nan
59053;BME280;44843;44.728;10.396;2022-08-23T07:06:42;100044.44;;;28.74;nan
59053;BME280;44843;44.728;10.396;2022-08-23T07:09:07;100041.81;;;28.67;nan
59053;BME280;44843;44.728;10.396;2022-08-23T07:11:33;100045.72;;;28.71;nan
59053;BME280;44843;44.728;10.396;2022-08-23T07:14:01;100041.59;;;28.69;nan
59053;BME280;44843;44.728;10.396;2022-08-23T07:16:39;100047.91;;;28.81;nan
59053;BME280;44843;44.728;10.396;2022-08-23T07:19:05;100044.97;;;28.89;nan
59053;BME280;44843;44.728;10.396;2022-08-23T07:21:31;100049.75;;;29.12;nan
59053;BME280;44843;44.728;10.396;2022-08-23T07:23:56;100059.19;;;28.90;nan
59053;BME280;44843;44.728;10.396;2022-08-23T07:26:23;100059.34;;;29.02;nan
59053;BME280;44843;44.728;10.396;2022-08-23T07:28:49;100058.88;;;29.30;nan
59053;BME280;44843;44.728;10.396;2022-08-23T07:31:19;100056.00;;;29.31;nan
59053;BME280;44843;44.728;10.396;2022-08-23T07:33:45;100057.78;;;29.19;nan
59053;BME280;44843;44.728;10.396;2022-08-23T07:36:15;100059.69;;;29.55;nan
59053;BME280;44843;44.728;10.396;2022-08-23T07:38:42;100065.06;;;29.81;nan
59053;BME280;44843;44.728;10.396;2022-08-23T07:41:08;100070.31;;;29.69;nan
59053;BME280;44843;44.728;10.396;2022-08-23T07:43:34;100066.34;;;29.28;nan
59053;BME280;44843;44.728;10.396;2022-08-23T07:46:00;100068.34;;;29.07;nan
59053;BME280;44843;44.728;10.396;2022-08-23T07:48:26;100070.91;;;28.64;nan
59053;BME280;44843;44.728;10.396;2022-08-23T07:50:56;100074.03;;;28.61;nan
59053;BME280;44843;44.728;10.396;2022-08-23T07:53:23;100075.50;;;28.88;nan
59053;BME280;44843;44.728;10.396;2022-08-23T07:55:49;100084.00;;;28.53;nan
59053;BME280;44843;44.728;10.396;2022-08-23T07:58:15;100085.84;;;28.01;nan
59053;BME280;44843;44.728;10.396;2022-08-23T08:00:41;100083.41;;;27.60;nan
59053;BME280;44843;44.728;10.396;2022-08-23T08:03:06;100086.06;;;27.80;nan
59053;BME280;44843;44.728;10.396;2022-08-23T08:05:33;100079.94;;;27.26;nan
59053;BME280;44843;44.728;10.396;2022-08-23T08:07:58;100083.63;;;27.58;nan
59053;BME280;44843;44.728;10.396;2022-08-23T08:10:25;100092.66;;;27.77;nan
59053;BME280;44843;44.728;10.396;2022-08-23T08:12:50;100089.78;;;27.59;nan
59053;BME280;44843;44.728;10.396;2022-08-23T08:15:16;100086.06;;;27.93;nan
59053;BME280;44843;44.728;10.396;2022-08-23T08:17:42;100098.63;;;27.72;nan
59053;BME280;44843;44.728;10.396;2022-08-23T08:20:08;100099.00;;;27.96;nan
59053;BME280;44843;44.728;10.396;2022-08-23T08:22:33;100101.06;;;28.01;nan
59053;BME280;44843;44.728;10.396;2022-08-23T08:24:59;100103.78;;;27.87;nan
59053;BME280;44843;44.728;10.396;2022-08-23T08:27:25;100100.28;;;27.73;nan
59053;BME280;44843;44.728;10.396;2022-08-23T08:29:51;100101.31;;;27.79;nan
59053;BME280;44843;44.728;10.396;2022-08-23T08:32:16;100103.19;;;27.39;nan
59053;BME280;44843;44.728;10.396;2022-08-23T08:34:42;100104.38;;;27.76;nan
59053;BME280;44843;44.728;10.396;2022-08-23T08:37:07;100104.75;;;26.80;nan
59053;BME280;44843;44.728;10.396;2022-08-23T08:39:33;100105.59;;;27.07;nan
59053;BME280;44843;44.728;10.396;2022-08-23T08:44:55;100113.69;;;27.60;nan
59053;BME280;44843;44.728;10.396;2022-08-23T08:47:38;100110.19;;;27.66;nan
59053;BME280;44843;44.728;10.396;2022-08-23T08:50:13;100118.81;;;27.75;nan
59053;BME280;44843;44.728;10.396;2022-08-23T08:52:44;100122.34;;;27.69;nan
59053;BME280;44843;44.728;10.396;2022-08-23T08:55:37;100120.06;;;27.79;nan
59053;BME280;44843;44.728;10.396;2022-08-23T08:58:05;100117.16;;;27.87;nan
59053;BME280;44843;44.728;10.396;2022-08-23T09:00:34;100123.78;;;27.71;nan
59053;BME280;44843;44.728;10.396;2022-08-23T09:03:03;100123.31;;;28.08;nan
59053;BME280;44843;44.728;10.396;2022-08-23T09:05:32;100114.81;;;28.24;nan
59053;BME280;44843;44.728;10.396;2022-08-23T09:11:02;100126.63;;;27.83;nan
59053;BME280;44843;44.728;10.396;2022-08-23T09:19:04;100130.72;;;27.12;nan
59053;BME280;44843;44.728;10.396;2022-08-23T09:21:43;100127.69;;;27.62;nan
59053;BME280;44843;44.728;10.396;2022-08-23T09:24:09;100130.72;;;28.12;nan
59053;BME280;44843;44.728;10.396;2022-08-23T09:26:35;100133.75;;;28.36;nan
59053;BME280;44843;44.728;10.396;2022-08-23T09:29:10;100132.84;;;27.77;nan
59053;BME280;44843;44.728;10.396;2022-08-23T09:31:45;100131.00;;;27.58;nan
59053;BME280;44843;44.728;10.396;2022-08-23T09:34:19;100134.66;;;27.10;nan
59053;BME280;44843;44.728;10.396;2022-08-23T09:36:45;100128.72;;;27.61;nan
59053;BME280;44843;44.728;10.396;2022-08-23T09:39:29;100133.25;;;27.27;nan
59053;BME280;44843;44.728;10.396;2022-08-23T09:41:55;100128.72;;;27.61;nan
59053;BME280;44843;44.728;10.396;2022-08-23T09:44:37;100132.63;;;27.59;nan
59053;BME280;44843;44.728;10.396;2022-08-23T09:47:06;100128.94;;;27.66;nan
59053;BME280;44843;44.728;10.396;2022-08-23T09:49:32;100127.88;;;27.94;nan
59053;BME280;44843;44.728;10.396;2022-08-23T09:52:00;100130.53;;;28.01;nan
59053;BME280;44843;44.728;10.396;2022-08-23T09:54:30;100134.28;;;27.60;nan
59053;BME280;44843;44.728;10.396;2022-08-23T09:57:04;100128.22;;;28.18;nan
59053;BME280;44843;44.728;10.396;2022-08-23T09:59:38;100123.06;;;28.16;nan
59053;BME280;44843;44.728;10.396;2022-08-23T10:02:32;100130.13;;;28.10;nan
59053;BME280;44843;44.728;10.396;2022-08-23T10:05:06;100130.72;;;28.12;nan
59053;BME280;44843;44.728;10.396;2022-08-23T10:07:41;100140.78;;;28.24;nan
59053;BME280;44843;44.728;10.396;2022-08-23T10:12:52;100140.78;;;28.30;nan
59053;BME280;44843;44.728;10.396;2022-08-23T10:15:20;100141.97;;;28.41;nan
59053;BME280;44843;44.728;10.396;2022-08-23T10:20:46;100148.41;;;28.27;nan
59053;BME280;44843;44.728;10.396;2022-08-23T10:23:22;100147.56;;;28.33;nan
59053;BME280;44843;44.728;10.396;2022-08-23T10:25:57;100151.50;;;28.30;nan
59053;BME280;44843;44.728;10.396;2022-08-23T10:34:40;100137.84;;;28.45;nan
59053;BME280;44843;44.728;10.396;2022-08-23T10:37:10;100139.13;;;28.36;nan
59053;BME280;44843;44.728;10.396;2022-08-23T10:47:38;100129.63;;;28.27;nan
59053;BME280;44843;44.728;10.396;2022-08-23T10:50:11;100133.69;;;28.56;nan
59053;BME280;44843;44.728;10.396;2022-08-23T10:52:50;100134.31;;;28.58;nan
59053;BME280;44843;44.728;10.396;2022-08-23T10:55:28;100137.41;;;28.48;nan
59053;BME280;44843;44.728;10.396;2022-08-23T10:58:14;100137.28;;;28.30;nan
59053;BME280;44843;44.728;10.396;2022-08-23T11:00:40;100134.84;;;28.08;nan
59053;BME280;44843;44.728;10.396;2022-08-23T11:05:34;100131.66;;;28.51;nan
59053;BME280;44843;44.728;10.396;2022-08-23T11:08:30;100135.22;;;28.32;nan
59053;BME280;44843;44.728;10.396;2022-08-23T11:10:57;100136.78;;;28.46;nan
59053;BME280;44843;44.728;10.396;2022-08-23T11:13:25;100143.22;;;28.39;nan
59053;BME280;44843;44.728;10.396;2022-08-23T11:16:13;100139.53;;;28.26;nan
59053;BME280;44843;44.728;10.396;2022-08-23T11:18:46;100138.75;;;28.19;nan
59053;BME280;44843;44.728;10.396;2022-08-23T11:28:55;100136.03;;;28.84;nan
59053;BME280;44843;44.728;10.396;2022-08-23T11:31:28;100128.47;;;28.68;nan
59053;BME280;44843;44.728;10.396;2022-08-23T11:34:03;100130.41;;;28.47;nan
59053;BME280;44843;44.728;10.396;2022-08-23T11:36:30;100133.59;;;28.76;nan
59053;BME280;44843;44.728;10.396;2022-08-23T11:46:55;100137.13;;;28.70;nan
59053;BME280;44843;44.728;10.396;2022-08-23T12:05:18;100134.41;;;29.15;nan
59053;BME280;44843;44.728;10.396;2022-08-23T12:10:56;100137.91;;;29.15;nan
59053;BME280;44843;44.728;10.396;2022-08-23T12:16:05;100143.59;;;28.94;nan
59053;BME280;44843;44.728;10.396;2022-08-23T12:18:34;100152.38;;;29.08;nan
59053;BME280;44843;44.728;10.396;2022-08-23T12:21:03;100146.06;;;29.27;nan
59053;BME280;44843;44.728;10.396;2022-08-23T12:23:30;100145.38;;;29.07;nan
59053;BME280;44843;44.728;10.396;2022-08-23T12:29:20;100130.13;;;29.01;nan
59053;BME280;44843;44.728;10.396;2022-08-23T12:37:13;100128.22;;;28.76;nan
59053;BME280;44843;44.728;10.396;2022-08-23T12:40:03;100126.84;;;28.67;nan
59053;BME280;44843;44.728;10.396;2022-08-23T12:42:34;100121.00;;;28.76;nan
59053;BME280;44843;44.728;10.396;2022-08-23T12:47:32;100119.53;;;28.81;nan
59053;BME280;44843;44.728;10.396;2022-08-23T12:52:35;100125.78;;;28.68;nan
59053;BME280;44843;44.728;10.396;2022-08-23T12:55:11;100118.72;;;28.80;nan
59053;BME280;44843;44.728;10.396;2022-08-23T12:57:39;100116.19;;;28.85;nan
59053;BME280;44843;44.728;10.396;2022-08-23T13:00:17;100122.47;;;29.04;nan
59053;BME280;44843;44.728;10.396;2022-08-23T13:03:17;100122.22;;;29.06;nan
59053;BME280;44843;44.728;10.396;2022-08-23T13:08:35;100117.81;;;28.93;nan
59053;BME280;44843;44.728;10.396;2022-08-23T13:11:03;100120.88;;;28.96;nan
59053;BME280;44843;44.728;10.396;2022-08-23T13:13:29;100118.13;;;29.03;nan
59053;BME280;44843;44.728;10.396;2022-08-23T13:16:01;100115.84;;;29.07;nan
59053;BME280;44843;44.728;10.396;2022-08-23T13:23:47;100114.31;;;29.24;nan
59053;BME280;44843;44.728;10.396;2022-08-23T13:26:39;100103.00;;;29.15;nan
59053;BME280;44843;44.728;10.396;2022-08-23T13:31:48;100105.09;;;29.13;nan
59053;BME280;44843;44.728;10.396;2022-08-23T13:34:37;100106.25;;;29.24;nan
59053;BME280;44843;44.728;10.396;2022-08-23T13:37:29;100095.03;;;29.02;nan
59053;BME280;44843;44.728;10.396;2022-08-23T13:39:58;100093.19;;;29.28;nan
59053;BME280;44843;44.728;10.396;2022-08-23T13:42:34;100091.50;;;29.33;nan
59053;BME280;44843;44.728;10.396;2022-08-23T13:45:11;100089.03;;;29.32;nan
59053;BME280;44843;44.728;10.396;2022-08-23T13:47:37;100101.09;;;29.23;nan
59053;BME280;44843;44.728;10.396;2022-08-23T13:50:37;100096.16;;;29.20;nan
59053;BME280;44843;44.728;10.396;2022-08-23T13:53:04;100085.81;;;29.23;nan
59053;BME280;44843;44.728;10.396;2022-08-23T13:55:31;100089.00;;;29.07;nan
59053;BME280;44843;44.728;10.396;2022-08-23T13:57:58;100082.19;;;29.11;nan
59053;BME280;44843;44.728;10.396;2022-08-23T14:00:24;100086.66;;;29.24;nan
59053;BME280;44843;44.728;10.396;2022-08-23T14:02:51;100090.34;;;29.23;nan
59053;BME280;44843;44.728;10.396;2022-08-23T14:05:21;100084.16;;;29.22;nan
59053;BME280;44843;44.728;10.396;2022-08-23T14:07:48;100084.63;;;29.12;nan
59053;BME280;44843;44.728;10.396;2022-08-23T14:10:20;100081.63;;;29.02;nan
59053;BME280;44843;44.728;10.396;2022-08-23T14:12:48;100079.50;;;29.11;nan
59053;BME280;44843;44.728;10.396;2022-08-23T14:15:14;100082.63;;;29.01;nan
59053;BME280;44843;44.728;10.396;2022-08-23T14:17:46;100073.78;;;29.01;nan
59053;BME280;44843;44.728;10.396;2022-08-23T14:20:13;100081.47;;;28.90;nan
59053;BME280;44843;44.728;10.396;2022-08-23T14:22:40;100081.59;;;29.09;nan
59053;BME280;44843;44.728;10.396;2022-08-23T14:25:06;100074.44;;;28.96;nan
59053;BME280;44843;44.728;10.396;2022-08-23T14:27:33;100070.66;;;29.10;nan
59053;BME280;44843;44.728;10.396;2022-08-23T14:29:58;100077.31;;;28.94;nan
59053;BME280;44843;44.728;10.396;2022-08-23T14:32:25;100077.94;;;28.96;nan
59053;BME280;44843;44.728;10.396;2022-08-23T14:34:50;100078.28;;;29.07;nan
59053;BME280;44843;44.728;10.396;2022-08-23T14:37:15;100075.13;;;28.85;nan
59053;BME280;44843;44.728;10.396;2022-08-23T14:39:41;100075.19;;;29.03;nan
59053;BME280;44843;44.728;10.396;2022-08-23T14:42:07;100084.63;;;29.19;nan
59053;BME280;44843;44.728;10.396;2022-08-23T14:44:33;100087.47;;;29.24;nan
59053;BME280;44843;44.728;10.396;2022-08-23T14:46:58;100081.31;;;29.42;nan
59053;BME280;44843;44.728;10.396;2022-08-23T14:49:24;100079.88;;;29.40;nan
59053;BME280;44843;44.728;10.396;2022-08-23T14:51:49;100084.19;;;29.41;nan
59053;BME280;44843;44.728;10.396;2022-08-23T14:54:21;100079.38;;;29.49;nan
59053;BME280;44843;44.728;10.396;2022-08-23T14:56:47;100083.59;;;29.38;nan